sensor_id;sensor_type;location;lat;lon;timestamp;P1;durP1;ratioP1;P2;durP2;ratioP2
56911;SDS011;42800;53.928;27.662;2023-10-19T00:02:43;1.20;;;1.10;;
56911;SDS011;42800;53.928;27.662;2023-10-19T00:05:09;0.77;;;0.77;;
56911;SDS011;42800;53.928;27.662;2023-10-19T00:07:35;1.08;;;1.00;;
56911;SDS011;42800;53.928;27.662;2023-10-19T00:10:01;0.95;;;0.90;;
56911;SDS011;42800;53.928;27.662;2023-10-19T00:12:29;0.70;;;0.70;;
56911;SDS011;42800;53.928;27.662;2023-10-19T00:14:55;0.68;;;0.68;;
56911;SDS011;42800;53.928;27.662;2023-10-19T00:17:21;0.60;;;0.60;;
56911;SDS011;42800;53.928;27.662;2023-10-19T00:19:52;1.27;;;0.85;;
56911;SDS011;42800;53.928;27.662;2023-10-19T00:22:23;3.13;;;0.90;;
56911;SDS011;42800;53.928;27.662;2023-10-19T00:24:49;2.10;;;0.80;;
56911;SDS011;42800;53.928;27.662;2023-10-19T00:27:15;0.90;;;0.90;;
56911;SDS011;42800;53.928;27.662;2023-10-19T00:29:42;1.00;;;1.00;;
56911;SDS011;42800;53.928;27.662;2023-10-19T00:32:14;0.82;;;0.82;;
56911;SDS011;42800;53.928;27.662;2023-10-19T00:34:41;0.85;;;0.85;;
56911;SDS011;42800;53.928;27.662;2023-10-19T00:37:08;1.80;;;1.00;;
56911;SDS011;42800;53.928;27.662;2023-10-19T00:39:35;1.05;;;1.00;;
56911;SDS011;42800;53.928;27.662;2023-10-19T00:42:08;1.27;;;1.17;;
56911;SDS011;42800;53.928;27.662;2023-10-19T00:44:34;1.38;;;1.10;;
56911;SDS011;42800;53.928;27.662;2023-10-19T00:47:03;1.23;;;1.00;;
56911;SDS011;42800;53.928;27.662;2023-10-19T00:49:32;2.03;;;1.00;;
56911;SDS011;42800;53.928;27.662;2023-10-19T00:51:59;1.60;;;0.90;;
56911;SDS011;42800;53.928;27.662;2023-10-19T00:54:36;0.93;;;0.93;;
56911;SDS011;42800;53.928;27.662;2023-10-19T00:57:07;0.88;;;0.88;;
56911;SDS011;42800;53.928;27.662;2023-10-19T00:59:33;0.85;;;0.80;;
56911;SDS011;42800;53.928;27.662;2023-10-19T01:02:01;1.23;;;1.13;;
56911;SDS011;42800;53.928;27.662;2023-10-19T01:04:41;0.90;;;0.90;;
56911;SDS011;42800;53.928;27.662;2023-10-19T01:07:10;2.05;;;1.30;;
56911;SDS011;42800;53.928;27.662;2023-10-19T01:09:37;1.33;;;1.23;;
56911;SDS011;42800;53.928;27.662;2023-10-19T01:12:04;1.08;;;1.08;;
56911;SDS011;42800;53.928;27.662;2023-10-19T01:14:47;1.58;;;1.25;;
56911;SDS011;42800;53.928;27.662;2023-10-19T01:17:26;2.28;;;1.40;;
56911;SDS011;42800;53.928;27.662;2023-10-19T01:19:56;3.28;;;1.10;;
56911;SDS011;42800;53.928;27.662;2023-10-19T01:22:24;3.67;;;1.48;;
56911;SDS011;42800;53.928;27.662;2023-10-19T01:24:52;2.17;;;1.45;;
56911;SDS011;42800;53.928;27.662;2023-10-19T01:27:19;1.27;;;1.17;;
56911;SDS011;42800;53.928;27.662;2023-10-19T01:29:45;3.47;;;1.42;;
56911;SDS011;42800;53.928;27.662;2023-10-19T01:32:11;1.38;;;1.13;;
56911;SDS011;42800;53.928;27.662;2023-10-19T01:34:40;1.85;;;1.60;;
56911;SDS011;42800;53.928;27.662;2023-10-19T01:37:06;2.30;;;1.60;;
56911;SDS011;42800;53.928;27.662;2023-10-19T01:39:32;5.25;;;1.17;;
56911;SDS011;42800;53.928;27.662;2023-10-19T01:42:01;1.90;;;1.58;;
56911;SDS011;42800;53.928;27.662;2023-10-19T01:44:29;1.63;;;1.40;;
56911;SDS011;42800;53.928;27.662;2023-10-19T01:46:55;1.58;;;1.48;;
56911;SDS011;42800;53.928;27.662;2023-10-19T01:49:21;1.40;;;1.30;;
56911;SDS011;42800;53.928;27.662;2023-10-19T01:51:51;1.95;;;1.50;;
56911;SDS011;42800;53.928;27.662;2023-10-19T01:54:19;1.98;;;1.65;;
56911;SDS011;42800;53.928;27.662;2023-10-19T01:56:48;1.75;;;1.63;;
56911;SDS011;42800;53.928;27.662;2023-10-19T01:59:16;3.13;;;1.38;;
56911;SDS011;42800;53.928;27.662;2023-10-19T02:01:42;2.40;;;1.70;;
56911;SDS011;42800;53.928;27.662;2023-10-19T02:04:10;2.70;;;1.83;;
56911;SDS011;42800;53.928;27.662;2023-10-19T02:06:38;1.73;;;1.63;;
56911;SDS011;42800;53.928;27.662;2023-10-19T02:09:06;1.58;;;1.48;;
56911;SDS011;42800;53.928;27.662;2023-10-19T02:11:42;1.60;;;1.50;;
56911;SDS011;42800;53.928;27.662;2023-10-19T02:14:10;6.53;;;1.75;;
56911;SDS011;42800;53.928;27.662;2023-10-19T02:16:40;4.97;;;2.00;;
56911;SDS011;42800;53.928;27.662;2023-10-19T02:19:06;2.72;;;2.03;;
56911;SDS011;42800;53.928;27.662;2023-10-19T02:21:32;2.95;;;2.08;;
56911;SDS011;42800;53.928;27.662;2023-10-19T02:24:04;12.18;;;3.45;;
56911;SDS011;42800;53.928;27.662;2023-10-19T02:26:32;3.80;;;2.67;;
56911;SDS011;42800;53.928;27.662;2023-10-19T02:28:58;2.53;;;1.98;;
56911;SDS011;42800;53.928;27.662;2023-10-19T02:31:25;2.15;;;1.95;;
56911;SDS011;42800;53.928;27.662;2023-10-19T02:33:52;4.72;;;2.50;;
56911;SDS011;42800;53.928;27.662;2023-10-19T02:36:24;7.50;;;2.13;;
56911;SDS011;42800;53.928;27.662;2023-10-19T02:38:53;5.38;;;2.63;;
56911;SDS011;42800;53.928;27.662;2023-10-19T02:41:19;2.42;;;2.22;;
56911;SDS011;42800;53.928;27.662;2023-10-19T02:43:46;2.17;;;1.98;;
56911;SDS011;42800;53.928;27.662;2023-10-19T02:46:15;3.03;;;2.50;;
56911;SDS011;42800;53.928;27.662;2023-10-19T02:48:42;2.40;;;2.20;;
56911;SDS011;42800;53.928;27.662;2023-10-19T02:51:10;2.85;;;2.30;;
56911;SDS011;42800;53.928;27.662;2023-10-19T02:53:37;2.80;;;2.20;;
56911;SDS011;42800;53.928;27.662;2023-10-19T02:56:10;3.45;;;2.47;;
56911;SDS011;42800;53.928;27.662;2023-10-19T02:58:39;3.10;;;2.25;;
56911;SDS011;42800;53.928;27.662;2023-10-19T03:01:11;4.00;;;2.65;;
56911;SDS011;42800;53.928;27.662;2023-10-19T03:03:39;3.08;;;2.00;;
56911;SDS011;42800;53.928;27.662;2023-10-19T03:06:04;3.67;;;2.55;;
56911;SDS011;42800;53.928;27.662;2023-10-19T03:08:32;3.67;;;2.58;;
56911;SDS011;42800;53.928;27.662;2023-10-19T03:10:58;3.60;;;2.65;;
56911;SDS011;42800;53.928;27.662;2023-10-19T03:13:29;4.97;;;2.80;;
56911;SDS011;42800;53.928;27.662;2023-10-19T03:15:54;3.85;;;2.20;;
56911;SDS011;42800;53.928;27.662;2023-10-19T03:18:22;3.58;;;2.58;;
56911;SDS011;42800;53.928;27.662;2023-10-19T03:20:48;2.65;;;2.45;;
56911;SDS011;42800;53.928;27.662;2023-10-19T03:23:16;6.38;;;2.85;;
56911;SDS011;42800;53.928;27.662;2023-10-19T03:25:42;2.83;;;2.50;;
56911;SDS011;42800;53.928;27.662;2023-10-19T03:28:14;2.83;;;2.50;;
56911;SDS011;42800;53.928;27.662;2023-10-19T03:30:42;2.97;;;2.67;;
56911;SDS011;42800;53.928;27.662;2023-10-19T03:33:08;2.58;;;2.30;;
56911;SDS011;42800;53.928;27.662;2023-10-19T03:35:35;2.97;;;2.67;;
56911;SDS011;42800;53.928;27.662;2023-10-19T03:38:03;4.20;;;3.30;;
56911;SDS011;42800;53.928;27.662;2023-10-19T03:40:33;4.32;;;2.97;;
56911;SDS011;42800;53.928;27.662;2023-10-19T03:43:04;4.55;;;2.85;;
56911;SDS011;42800;53.928;27.662;2023-10-19T03:45:42;3.67;;;2.60;;
56911;SDS011;42800;53.928;27.662;2023-10-19T03:48:12;3.17;;;2.35;;
56911;SDS011;42800;53.928;27.662;2023-10-19T03:50:38;3.78;;;3.15;;
56911;SDS011;42800;53.928;27.662;2023-10-19T03:53:04;7.72;;;3.55;;
56911;SDS011;42800;53.928;27.662;2023-10-19T03:55:30;25.45;;;9.43;;
56911;SDS011;42800;53.928;27.662;2023-10-19T03:57:56;12.02;;;5.85;;
56911;SDS011;42800;53.928;27.662;2023-10-19T04:00:23;28.67;;;10.25;;
56911;SDS011;42800;53.928;27.662;2023-10-19T04:02:50;7.90;;;4.40;;
56911;SDS011;42800;53.928;27.662;2023-10-19T04:05:20;4.68;;;3.83;;
56911;SDS011;42800;53.928;27.662;2023-10-19T04:07:47;3.53;;;3.15;;
56911;SDS011;42800;53.928;27.662;2023-10-19T04:10:15;3.33;;;2.92;;
56911;SDS011;42800;53.928;27.662;2023-10-19T04:12:55;7.32;;;3.55;;
56911;SDS011;42800;53.928;27.662;2023-10-19T04:15:21;5.07;;;3.72;;
56911;SDS011;42800;53.928;27.662;2023-10-19T04:17:48;4.55;;;3.35;;
56911;SDS011;42800;53.928;27.662;2023-10-19T04:20:14;4.00;;;3.03;;
56911;SDS011;42800;53.928;27.662;2023-10-19T04:23:07;6.30;;;3.47;;
56911;SDS011;42800;53.928;27.662;2023-10-19T04:25:35;6.30;;;3.63;;
56911;SDS011;42800;53.928;27.662;2023-10-19T04:28:01;3.92;;;3.15;;
56911;SDS011;42800;53.928;27.662;2023-10-19T04:30:30;4.15;;;3.38;;
56911;SDS011;42800;53.928;27.662;2023-10-19T04:32:58;3.38;;;2.85;;
56911;SDS011;42800;53.928;27.662;2023-10-19T04:35:26;4.25;;;3.05;;
56911;SDS011;42800;53.928;27.662;2023-10-19T04:37:55;5.82;;;3.47;;
56911;SDS011;42800;53.928;27.662;2023-10-19T04:40:22;6.78;;;3.50;;
56911;SDS011;42800;53.928;27.662;2023-10-19T04:42:50;8.68;;;5.38;;
56911;SDS011;42800;53.928;27.662;2023-10-19T04:45:16;11.73;;;5.80;;
56911;SDS011;42800;53.928;27.662;2023-10-19T04:47:44;17.38;;;7.28;;
56911;SDS011;42800;53.928;27.662;2023-10-19T04:50:10;13.77;;;5.20;;
56911;SDS011;42800;53.928;27.662;2023-10-19T04:52:36;4.65;;;3.88;;
56911;SDS011;42800;53.928;27.662;2023-10-19T04:55:03;5.05;;;3.35;;
56911;SDS011;42800;53.928;27.662;2023-10-19T04:57:29;6.65;;;3.30;;
56911;SDS011;42800;53.928;27.662;2023-10-19T04:59:55;3.60;;;3.28;;
56911;SDS011;42800;53.928;27.662;2023-10-19T05:02:22;5.85;;;3.10;;
56911;SDS011;42800;53.928;27.662;2023-10-19T05:04:48;6.20;;;3.33;;
56911;SDS011;42800;53.928;27.662;2023-10-19T05:07:15;4.78;;;3.72;;
56911;SDS011;42800;53.928;27.662;2023-10-19T05:09:42;5.82;;;3.60;;
56911;SDS011;42800;53.928;27.662;2023-10-19T05:12:08;8.70;;;3.97;;
56911;SDS011;42800;53.928;27.662;2023-10-19T05:14:35;5.75;;;3.83;;
56911;SDS011;42800;53.928;27.662;2023-10-19T05:17:01;10.30;;;3.67;;
56911;SDS011;42800;53.928;27.662;2023-10-19T05:19:29;5.78;;;3.30;;
56911;SDS011;42800;53.928;27.662;2023-10-19T05:21:56;4.10;;;3.35;;
56911;SDS011;42800;53.928;27.662;2023-10-19T05:24:23;5.35;;;3.63;;
56911;SDS011;42800;53.928;27.662;2023-10-19T05:26:49;6.15;;;4.03;;
56911;SDS011;42800;53.928;27.662;2023-10-19T05:29:15;6.60;;;3.75;;
56911;SDS011;42800;53.928;27.662;2023-10-19T05:31:41;6.50;;;3.42;;
56911;SDS011;42800;53.928;27.662;2023-10-19T05:34:07;5.93;;;3.90;;
56911;SDS011;42800;53.928;27.662;2023-10-19T05:36:33;5.68;;;3.50;;
56911;SDS011;42800;53.928;27.662;2023-10-19T05:38:59;5.43;;;3.53;;
56911;SDS011;42800;53.928;27.662;2023-10-19T05:41:26;4.18;;;3.60;;
56911;SDS011;42800;53.928;27.662;2023-10-19T05:43:52;4.68;;;3.33;;
56911;SDS011;42800;53.928;27.662;2023-10-19T05:46:18;6.57;;;4.25;;
56911;SDS011;42800;53.928;27.662;2023-10-19T05:48:46;4.63;;;3.88;;
56911;SDS011;42800;53.928;27.662;2023-10-19T05:51:14;6.25;;;3.80;;
56911;SDS011;42800;53.928;27.662;2023-10-19T05:53:40;5.07;;;3.13;;
56911;SDS011;42800;53.928;27.662;2023-10-19T05:56:06;5.00;;;3.72;;
56911;SDS011;42800;53.928;27.662;2023-10-19T05:58:33;8.00;;;4.30;;
56911;SDS011;42800;53.928;27.662;2023-10-19T06:00:59;6.63;;;4.15;;
56911;SDS011;42800;53.928;27.662;2023-10-19T06:03:25;6.57;;;3.97;;
56911;SDS011;42800;53.928;27.662;2023-10-19T06:05:51;5.85;;;3.70;;
56911;SDS011;42800;53.928;27.662;2023-10-19T06:08:21;5.10;;;3.97;;
56911;SDS011;42800;53.928;27.662;2023-10-19T06:10:50;6.70;;;4.45;;
56911;SDS011;42800;53.928;27.662;2023-10-19T06:13:16;6.68;;;4.32;;
56911;SDS011;42800;53.928;27.662;2023-10-19T06:15:43;4.78;;;3.17;;
56911;SDS011;42800;53.928;27.662;2023-10-19T06:18:09;15.75;;;3.60;;
56911;SDS011;42800;53.928;27.662;2023-10-19T06:20:35;5.43;;;3.60;;
56911;SDS011;42800;53.928;27.662;2023-10-19T06:23:02;8.73;;;3.80;;
56911;SDS011;42800;53.928;27.662;2023-10-19T06:25:29;7.72;;;3.80;;
56911;SDS011;42800;53.928;27.662;2023-10-19T06:27:56;6.57;;;3.70;;
56911;SDS011;42800;53.928;27.662;2023-10-19T06:30:22;7.97;;;3.83;;
56911;SDS011;42800;53.928;27.662;2023-10-19T06:32:50;8.63;;;4.55;;
56911;SDS011;42800;53.928;27.662;2023-10-19T06:35:17;4.95;;;3.88;;
56911;SDS011;42800;53.928;27.662;2023-10-19T06:37:43;4.47;;;3.63;;
56911;SDS011;42800;53.928;27.662;2023-10-19T06:40:10;5.35;;;3.38;;
56911;SDS011;42800;53.928;27.662;2023-10-19T06:42:37;5.90;;;3.92;;
56911;SDS011;42800;53.928;27.662;2023-10-19T06:45:04;7.63;;;5.57;;
56911;SDS011;42800;53.928;27.662;2023-10-19T06:47:32;6.22;;;4.13;;
56911;SDS011;42800;53.928;27.662;2023-10-19T06:50:03;5.60;;;4.03;;
56911;SDS011;42800;53.928;27.662;2023-10-19T06:52:32;6.50;;;3.95;;
56911;SDS011;42800;53.928;27.662;2023-10-19T06:54:58;5.97;;;3.65;;
56911;SDS011;42800;53.928;27.662;2023-10-19T06:57:24;4.50;;;3.40;;
56911;SDS011;42800;53.928;27.662;2023-10-19T06:59:50;6.50;;;3.78;;
56911;SDS011;42800;53.928;27.662;2023-10-19T07:02:17;7.50;;;3.55;;
56911;SDS011;42800;53.928;27.662;2023-10-19T07:04:45;17.63;;;4.53;;
56911;SDS011;42800;53.928;27.662;2023-10-19T07:07:13;9.02;;;4.10;;
56911;SDS011;42800;53.928;27.662;2023-10-19T07:09:39;5.97;;;3.75;;
56911;SDS011;42800;53.928;27.662;2023-10-19T07:12:06;5.05;;;3.85;;
56911;SDS011;42800;53.928;27.662;2023-10-19T07:14:33;6.95;;;3.83;;
56911;SDS011;42800;53.928;27.662;2023-10-19T07:16:59;9.65;;;3.85;;
56911;SDS011;42800;53.928;27.662;2023-10-19T07:19:25;4.60;;;3.80;;
56911;SDS011;42800;53.928;27.662;2023-10-19T07:21:51;6.93;;;3.78;;
56911;SDS011;42800;53.928;27.662;2023-10-19T07:24:23;4.03;;;3.10;;
56911;SDS011;42800;53.928;27.662;2023-10-19T07:26:49;4.28;;;3.53;;
56911;SDS011;42800;53.928;27.662;2023-10-19T07:29:29;8.10;;;2.90;;
56911;SDS011;42800;53.928;27.662;2023-10-19T07:31:56;3.72;;;3.40;;
56911;SDS011;42800;53.928;27.662;2023-10-19T07:34:23;6.82;;;3.95;;
56911;SDS011;42800;53.928;27.662;2023-10-19T07:36:53;4.95;;;3.10;;
56911;SDS011;42800;53.928;27.662;2023-10-19T07:39:19;5.55;;;3.75;;
56911;SDS011;42800;53.928;27.662;2023-10-19T07:41:46;3.50;;;3.00;;
56911;SDS011;42800;53.928;27.662;2023-10-19T07:44:12;3.90;;;2.97;;
56911;SDS011;42800;53.928;27.662;2023-10-19T07:46:38;7.03;;;3.25;;
56911;SDS011;42800;53.928;27.662;2023-10-19T07:49:04;6.22;;;3.08;;
56911;SDS011;42800;53.928;27.662;2023-10-19T07:51:32;3.15;;;2.67;;
56911;SDS011;42800;53.928;27.662;2023-10-19T07:53:58;3.50;;;2.80;;
56911;SDS011;42800;53.928;27.662;2023-10-19T07:56:24;2.78;;;2.50;;
56911;SDS011;42800;53.928;27.662;2023-10-19T07:58:50;4.63;;;2.85;;
56911;SDS011;42800;53.928;27.662;2023-10-19T08:01:16;3.65;;;2.90;;
56911;SDS011;42800;53.928;27.662;2023-10-19T08:03:42;3.42;;;2.58;;
56911;SDS011;42800;53.928;27.662;2023-10-19T08:06:08;3.90;;;2.90;;
56911;SDS011;42800;53.928;27.662;2023-10-19T08:08:34;4.97;;;2.90;;
56911;SDS011;42800;53.928;27.662;2023-10-19T08:11:00;3.42;;;2.65;;
56911;SDS011;42800;53.928;27.662;2023-10-19T08:13:27;3.47;;;2.58;;
56911;SDS011;42800;53.928;27.662;2023-10-19T08:15:54;3.47;;;2.58;;
56911;SDS011;42800;53.928;27.662;2023-10-19T08:18:20;3.47;;;2.70;;
56911;SDS011;42800;53.928;27.662;2023-10-19T08:20:46;3.08;;;2.50;;
56911;SDS011;42800;53.928;27.662;2023-10-19T08:23:14;3.40;;;2.10;;
56911;SDS011;42800;53.928;27.662;2023-10-19T08:25:41;1.90;;;1.70;;
56911;SDS011;42800;53.928;27.662;2023-10-19T08:28:09;2.95;;;2.10;;
56911;SDS011;42800;53.928;27.662;2023-10-19T08:30:36;2.75;;;2.38;;
56911;SDS011;42800;53.928;27.662;2023-10-19T08:33:03;2.03;;;1.65;;
56911;SDS011;42800;53.928;27.662;2023-10-19T08:35:31;1.98;;;1.73;;
56911;SDS011;42800;53.928;27.662;2023-10-19T08:38:00;1.67;;;1.58;;
56911;SDS011;42800;53.928;27.662;2023-10-19T08:40:29;3.63;;;1.67;;
56911;SDS011;42800;53.928;27.662;2023-10-19T08:42:55;2.13;;;1.77;;
56911;SDS011;42800;53.928;27.662;2023-10-19T08:45:21;2.80;;;1.60;;
56911;SDS011;42800;53.928;27.662;2023-10-19T08:47:48;4.15;;;1.60;;
56911;SDS011;42800;53.928;27.662;2023-10-19T08:50:19;2.50;;;1.83;;
56911;SDS011;42800;53.928;27.662;2023-10-19T08:52:48;5.88;;;1.98;;
56911;SDS011;42800;53.928;27.662;2023-10-19T08:55:18;2.03;;;1.83;;
56911;SDS011;42800;53.928;27.662;2023-10-19T08:57:44;2.03;;;1.50;;
56911;SDS011;42800;53.928;27.662;2023-10-19T09:00:14;1.77;;;1.60;;
56911;SDS011;42800;53.928;27.662;2023-10-19T09:02:42;2.45;;;1.80;;
56911;SDS011;42800;53.928;27.662;2023-10-19T09:05:08;2.25;;;1.52;;
56911;SDS011;42800;53.928;27.662;2023-10-19T09:07:45;5.88;;;1.70;;
56911;SDS011;42800;53.928;27.662;2023-10-19T09:10:15;1.40;;;1.30;;
56911;SDS011;42800;53.928;27.662;2023-10-19T09:12:41;2.45;;;1.40;;
56911;SDS011;42800;53.928;27.662;2023-10-19T09:15:13;1.77;;;1.67;;
56911;SDS011;42800;53.928;27.662;2023-10-19T09:17:46;7.20;;;1.90;;
56911;SDS011;42800;53.928;27.662;2023-10-19T09:20:14;3.92;;;2.38;;
56911;SDS011;42800;53.928;27.662;2023-10-19T09:22:43;2.03;;;1.80;;
56911;SDS011;42800;53.928;27.662;2023-10-19T09:25:10;1.55;;;1.42;;
56911;SDS011;42800;53.928;27.662;2023-10-19T09:27:36;2.90;;;1.92;;
56911;SDS011;42800;53.928;27.662;2023-10-19T09:30:02;2.35;;;2.15;;
56911;SDS011;42800;53.928;27.662;2023-10-19T09:32:33;2.80;;;1.77;;
56911;SDS011;42800;53.928;27.662;2023-10-19T09:35:00;2.67;;;2.10;;
56911;SDS011;42800;53.928;27.662;2023-10-19T09:37:28;1.98;;;1.77;;
56911;SDS011;42800;53.928;27.662;2023-10-19T09:39:55;3.88;;;2.45;;
56911;SDS011;42800;53.928;27.662;2023-10-19T09:42:22;1.65;;;1.55;;
56911;SDS011;42800;53.928;27.662;2023-10-19T09:44:57;2.75;;;1.92;;
56911;SDS011;42800;53.928;27.662;2023-10-19T09:47:29;3.60;;;1.98;;
56911;SDS011;42800;53.928;27.662;2023-10-19T09:49:58;2.40;;;1.80;;
56911;SDS011;42800;53.928;27.662;2023-10-19T09:52:24;2.67;;;1.95;;
56911;SDS011;42800;53.928;27.662;2023-10-19T09:54:52;3.53;;;1.92;;
56911;SDS011;42800;53.928;27.662;2023-10-19T09:57:26;1.97;;;1.57;;
56911;SDS011;42800;53.928;27.662;2023-10-19T10:00:05;3.00;;;1.77;;
56911;SDS011;42800;53.928;27.662;2023-10-19T10:02:37;3.22;;;1.95;;
56911;SDS011;42800;53.928;27.662;2023-10-19T10:05:06;5.78;;;2.13;;
56911;SDS011;42800;53.928;27.662;2023-10-19T10:10:59;3.60;;;2.15;;
56911;SDS011;42800;53.928;27.662;2023-10-19T10:13:41;3.45;;;2.08;;
56911;SDS011;42800;53.928;27.662;2023-10-19T10:16:07;2.83;;;2.22;;
56911;SDS011;42800;53.928;27.662;2023-10-19T10:18:34;2.28;;;2.08;;
56911;SDS011;42800;53.928;27.662;2023-10-19T10:21:07;8.10;;;3.63;;
56911;SDS011;42800;53.928;27.662;2023-10-19T10:23:42;3.72;;;2.22;;
56911;SDS011;42800;53.928;27.662;2023-10-19T10:26:10;4.80;;;2.08;;
56911;SDS011;42800;53.928;27.662;2023-10-19T10:28:36;2.75;;;1.73;;
56911;SDS011;42800;53.928;27.662;2023-10-19T10:31:12;2.15;;;1.63;;
56911;SDS011;42800;53.928;27.662;2023-10-19T10:33:41;2.92;;;1.92;;
56911;SDS011;42800;53.928;27.662;2023-10-19T10:36:10;2.28;;;1.85;;
56911;SDS011;42800;53.928;27.662;2023-10-19T10:38:36;2.75;;;2.50;;
56911;SDS011;42800;53.928;27.662;2023-10-19T10:41:02;5.53;;;2.08;;
56911;SDS011;42800;53.928;27.662;2023-10-19T10:43:29;2.47;;;2.03;;
56911;SDS011;42800;53.928;27.662;2023-10-19T10:46:04;5.68;;;1.60;;
56911;SDS011;42800;53.928;27.662;2023-10-19T10:48:31;9.70;;;2.20;;
56911;SDS011;42800;53.928;27.662;2023-10-19T10:50:57;2.22;;;1.80;;
56911;SDS011;42800;53.928;27.662;2023-10-19T10:53:23;3.45;;;2.28;;
56911;SDS011;42800;53.928;27.662;2023-10-19T10:55:51;2.97;;;2.20;;
56911;SDS011;42800;53.928;27.662;2023-10-19T10:58:17;2.97;;;2.00;;
56911;SDS011;42800;53.928;27.662;2023-10-19T11:00:44;3.45;;;2.00;;
56911;SDS011;42800;53.928;27.662;2023-10-19T11:03:12;2.90;;;2.00;;
56911;SDS011;42800;53.928;27.662;2023-10-19T11:05:39;2.40;;;1.80;;
56911;SDS011;42800;53.928;27.662;2023-10-19T11:08:06;2.10;;;1.63;;
56911;SDS011;42800;53.928;27.662;2023-10-19T11:10:34;2.63;;;1.80;;
56911;SDS011;42800;53.928;27.662;2023-10-19T11:13:01;2.03;;;1.83;;
56911;SDS011;42800;53.928;27.662;2023-10-19T11:15:27;5.22;;;2.35;;
56911;SDS011;42800;53.928;27.662;2023-10-19T11:17:54;2.88;;;1.80;;
56911;SDS011;42800;53.928;27.662;2023-10-19T11:20:21;3.15;;;1.98;;
56911;SDS011;42800;53.928;27.662;2023-10-19T11:22:48;2.00;;;1.77;;
56911;SDS011;42800;53.928;27.662;2023-10-19T11:25:18;2.10;;;1.55;;
56911;SDS011;42800;53.928;27.662;2023-10-19T11:27:45;2.90;;;2.15;;
56911;SDS011;42800;53.928;27.662;2023-10-19T11:30:12;3.38;;;1.80;;
56911;SDS011;42800;53.928;27.662;2023-10-19T11:32:39;3.25;;;1.95;;
56911;SDS011;42800;53.928;27.662;2023-10-19T11:35:06;5.28;;;1.70;;
56911;SDS011;42800;53.928;27.662;2023-10-19T11:37:44;6.88;;;2.22;;
56911;SDS011;42800;53.928;27.662;2023-10-19T11:40:14;2.53;;;2.15;;
56911;SDS011;42800;53.928;27.662;2023-10-19T11:42:40;10.93;;;2.13;;
56911;SDS011;42800;53.928;27.662;2023-10-19T11:45:07;3.97;;;2.00;;
56911;SDS011;42800;53.928;27.662;2023-10-19T11:47:33;2.47;;;1.98;;
56911;SDS011;42800;53.928;27.662;2023-10-19T11:49:59;2.38;;;1.90;;
56911;SDS011;42800;53.928;27.662;2023-10-19T11:52:26;4.45;;;2.00;;
56911;SDS011;42800;53.928;27.662;2023-10-19T11:54:53;5.15;;;3.50;;
56911;SDS011;42800;53.928;27.662;2023-10-19T11:57:19;2.55;;;2.00;;
56911;SDS011;42800;53.928;27.662;2023-10-19T11:59:45;6.20;;;2.30;;
56911;SDS011;42800;53.928;27.662;2023-10-19T12:02:17;4.35;;;2.65;;
56911;SDS011;42800;53.928;27.662;2023-10-19T12:04:43;2.20;;;2.00;;
56911;SDS011;42800;53.928;27.662;2023-10-19T12:07:10;7.90;;;2.10;;
56911;SDS011;42800;53.928;27.662;2023-10-19T12:09:36;2.42;;;1.92;;
56911;SDS011;42800;53.928;27.662;2023-10-19T12:12:06;3.95;;;2.33;;
56911;SDS011;42800;53.928;27.662;2023-10-19T12:14:32;5.20;;;2.40;;
56911;SDS011;42800;53.928;27.662;2023-10-19T12:16:59;7.43;;;2.22;;
56911;SDS011;42800;53.928;27.662;2023-10-19T12:19:26;2.88;;;2.08;;
56911;SDS011;42800;53.928;27.662;2023-10-19T12:21:54;2.67;;;1.90;;
56911;SDS011;42800;53.928;27.662;2023-10-19T12:24:20;8.52;;;2.60;;
56911;SDS011;42800;53.928;27.662;2023-10-19T12:26:47;2.92;;;2.15;;
56911;SDS011;42800;53.928;27.662;2023-10-19T12:29:13;2.75;;;2.00;;
56911;SDS011;42800;53.928;27.662;2023-10-19T12:31:41;3.22;;;1.83;;
56911;SDS011;42800;53.928;27.662;2023-10-19T12:34:07;4.57;;;2.40;;
56911;SDS011;42800;53.928;27.662;2023-10-19T12:36:36;3.67;;;2.17;;
56911;SDS011;42800;53.928;27.662;2023-10-19T12:39:03;3.65;;;2.25;;
56911;SDS011;42800;53.928;27.662;2023-10-19T12:41:30;7.07;;;3.53;;
56911;SDS011;42800;53.928;27.662;2023-10-19T12:43:57;5.65;;;2.40;;
56911;SDS011;42800;53.928;27.662;2023-10-19T12:46:25;4.13;;;2.85;;
56911;SDS011;42800;53.928;27.662;2023-10-19T12:48:54;5.95;;;3.22;;
56911;SDS011;42800;53.928;27.662;2023-10-19T12:51:21;4.93;;;2.88;;
56911;SDS011;42800;53.928;27.662;2023-10-19T12:53:48;3.88;;;2.80;;
56911;SDS011;42800;53.928;27.662;2023-10-19T12:56:16;3.53;;;2.40;;
56911;SDS011;42800;53.928;27.662;2023-10-19T12:58:43;3.03;;;2.30;;
56911;SDS011;42800;53.928;27.662;2023-10-19T13:01:09;2.75;;;2.05;;
56911;SDS011;42800;53.928;27.662;2023-10-19T13:03:41;4.43;;;2.30;;
56911;SDS011;42800;53.928;27.662;2023-10-19T13:06:07;3.38;;;2.00;;
56911;SDS011;42800;53.928;27.662;2023-10-19T13:08:33;2.55;;;2.13;;
56911;SDS011;42800;53.928;27.662;2023-10-19T13:10:59;4.97;;;2.55;;
56911;SDS011;42800;53.928;27.662;2023-10-19T13:13:25;3.92;;;2.67;;
56911;SDS011;42800;53.928;27.662;2023-10-19T13:15:51;4.07;;;2.33;;
56911;SDS011;42800;53.928;27.662;2023-10-19T13:18:19;4.13;;;2.63;;
56911;SDS011;42800;53.928;27.662;2023-10-19T13:20:46;4.55;;;2.80;;
56911;SDS011;42800;53.928;27.662;2023-10-19T13:23:13;7.72;;;3.40;;
56911;SDS011;42800;53.928;27.662;2023-10-19T13:25:42;6.95;;;4.00;;
56911;SDS011;42800;53.928;27.662;2023-10-19T13:28:12;8.75;;;3.50;;
56911;SDS011;42800;53.928;27.662;2023-10-19T13:30:39;3.22;;;2.58;;
56911;SDS011;42800;53.928;27.662;2023-10-19T13:33:06;4.15;;;2.80;;
56911;SDS011;42800;53.928;27.662;2023-10-19T13:35:35;3.47;;;2.50;;
56911;SDS011;42800;53.928;27.662;2023-10-19T13:38:02;3.80;;;2.22;;
56911;SDS011;42800;53.928;27.662;2023-10-19T13:40:29;5.05;;;2.75;;
56911;SDS011;42800;53.928;27.662;2023-10-19T13:42:55;5.10;;;3.13;;
56911;SDS011;42800;53.928;27.662;2023-10-19T13:45:21;4.30;;;2.40;;
56911;SDS011;42800;53.928;27.662;2023-10-19T13:47:48;4.68;;;2.60;;
56911;SDS011;42800;53.928;27.662;2023-10-19T13:50:14;3.72;;;2.38;;
56911;SDS011;42800;53.928;27.662;2023-10-19T13:52:41;4.65;;;2.88;;
56911;SDS011;42800;53.928;27.662;2023-10-19T13:55:07;3.05;;;2.53;;
56911;SDS011;42800;53.928;27.662;2023-10-19T13:57:37;4.00;;;2.22;;
56911;SDS011;42800;53.928;27.662;2023-10-19T14:00:05;5.85;;;2.55;;
56911;SDS011;42800;53.928;27.662;2023-10-19T14:02:33;6.72;;;2.58;;
56911;SDS011;42800;53.928;27.662;2023-10-19T14:04:59;6.13;;;2.90;;
56911;SDS011;42800;53.928;27.662;2023-10-19T14:07:25;8.65;;;2.53;;
56911;SDS011;42800;53.928;27.662;2023-10-19T14:09:52;2.95;;;2.10;;
56911;SDS011;42800;53.928;27.662;2023-10-19T14:12:18;5.38;;;2.35;;
56911;SDS011;42800;53.928;27.662;2023-10-19T14:14:44;8.30;;;2.95;;
56911;SDS011;42800;53.928;27.662;2023-10-19T14:17:11;3.92;;;2.05;;
56911;SDS011;42800;53.928;27.662;2023-10-19T14:19:37;2.53;;;2.05;;
56911;SDS011;42800;53.928;27.662;2023-10-19T14:22:04;3.80;;;2.05;;
56911;SDS011;42800;53.928;27.662;2023-10-19T14:24:30;2.78;;;1.90;;
56911;SDS011;42800;53.928;27.662;2023-10-19T14:26:56;2.00;;;1.80;;
56911;SDS011;42800;53.928;27.662;2023-10-19T14:29:24;3.30;;;2.08;;
56911;SDS011;42800;53.928;27.662;2023-10-19T14:31:50;5.82;;;1.98;;
56911;SDS011;42800;53.928;27.662;2023-10-19T14:34:16;5.22;;;2.42;;
56911;SDS011;42800;53.928;27.662;2023-10-19T14:36:43;1.92;;;1.60;;
56911;SDS011;42800;53.928;27.662;2023-10-19T14:39:08;2.40;;;1.95;;
56911;SDS011;42800;53.928;27.662;2023-10-19T14:41:34;5.15;;;1.98;;